Terminal Aerodrome Forecast
Issued by NWS Lake Charles, LA

Home | Current Version | Previous Version | Text Only | Print | Product List | Glossary On
Versions: 1 2 3 4 5 6 7 8 9 10 11 12 13 14 15 16 17 18 19 20
870
FTUS44 KLCH 201133
TAFAEX
TAF
KAEX 201133Z 2012/2112 19003KT P6SM BKN010
      TEMPO 2012/2014 3SM BR
     FM201500 20010KT P6SM FEW015
     FM210000 16005KT P6SM VCTS BKN012CB OVC020 PROB30 2102/2108
      VRB15G25KT 2SM +TSRA OVC009CB=

USA.gov is the U.S. government's official web portal to all federal, state and local government web resources and services.